»·PEaware :: WAT169 KSNA-KSLC

WAT169 :: KSNA-KSLC

FLIGHT INFORMATION

Flight Status: Arrived
Operator: Unknown
More flights by this operator :: More flights under this callsign
Pilot: Marty P. (27464)
Aircraft: BOEING 737-800
(B738)
More flights by this aircraft type
Origin: KSNA John Wayne-Orange Co
United States
Destination: KSLC Salt Lake City Intl
United States
More flights between these airports :: More routes between these airports
Route: FINZZ2 BEALE Q842 WINEN MLF DELTA5
File this flight plan on PilotEdge
Remarks:
Altitude:
(Current/Filed)
35,000ft
Speed:
(Current/Filed)
480kts
Departed: 27-Jul-20 08:38 PM
Arrived: 27-Jul-20 10:01 PM
Distance/Time
Traveled:
511nm/1:23
Distance/Time
To Go:
Arrived

Flight Plot

Page will automatically refresh every two minutes.


Map Options




Map Legend


Flown Route
Filed Route
Departure Airport
Arrival Airport
Navaid (VOR, NDB)
Fix

Horizontal Profiles

Position Reports

Time Latitude Longitude Heading Altitude Ground
Speed
27-Jul-20 20:17 33.675005 -117.865072 118 66ft 0kts
27-Jul-20 20:18 33.675005 -117.865072 118 66ft 0kts
27-Jul-20 20:19 33.675005 -117.865072 118 66ft 0kts
27-Jul-20 20:20 33.675005 -117.865072 118 66ft 0kts
27-Jul-20 20:21 33.675005 -117.865072 118 66ft 0kts
27-Jul-20 20:22 33.675005 -117.865072 118 66ft 0kts
27-Jul-20 20:23 33.675005 -117.865072 118 66ft 0kts
27-Jul-20 20:24 33.675005 -117.865072 118 66ft 0kts
27-Jul-20 20:25 33.675005 -117.865072 118 66ft 0kts
27-Jul-20 20:26 33.675005 -117.865072 118 66ft 0kts
27-Jul-20 20:27 33.675005 -117.865073 118 66ft 0kts
27-Jul-20 20:28 33.675005 -117.865073 118 66ft 0kts
27-Jul-20 20:29 33.675112 -117.865314 118 66ft 1kts
27-Jul-20 20:30 33.674990 -117.865922 31 66ft 0kts
27-Jul-20 20:31 33.674921 -117.865965 26 66ft 0kts
27-Jul-20 20:32 33.674921 -117.865965 26 66ft 0kts
27-Jul-20 20:33 33.676226 -117.865141 26 66ft 10kts
27-Jul-20 20:34 33.679090 -117.863317 27 66ft 10kts
27-Jul-20 20:35 33.680628 -117.863036 299 66ft 3kts
27-Jul-20 20:36 33.681331 -117.864608 297 66ft 12kts
27-Jul-20 20:37 33.667221 -117.874179 208 192ft 165kts
27-Jul-20 20:38 33.616221 -117.893597 186 2171ft 233kts
27-Jul-20 20:39 33.553904 -117.918647 220 5389ft 254kts
27-Jul-20 20:40 33.508181 -117.982560 251 7724ft 253kts
27-Jul-20 20:41 33.525826 -118.061956 311 10719ft 272kts
27-Jul-20 20:42 33.595400 -118.107905 354 12630ft 325kts
27-Jul-20 20:43 33.687994 -118.072865 26 14113ft 381kts
27-Jul-20 20:44 33.787123 -118.014620 25 16596ft 394kts
27-Jul-20 20:45 33.882016 -117.958099 28 19434ft 392kts
27-Jul-20 20:46 33.977177 -117.878420 34 20636ft 429kts
27-Jul-20 20:47 34.072582 -117.787011 42 22590ft 446kts
27-Jul-20 20:48 34.157100 -117.673334 47 24494ft 462kts
27-Jul-20 20:49 34.240375 -117.552599 47 26121ft 477kts
27-Jul-20 20:50 34.322652 -117.430784 48 27522ft 491kts
27-Jul-20 20:51 34.408426 -117.302456 48 28804ft 503kts
27-Jul-20 20:52 34.496378 -117.170579 48 30348ft 505kts
27-Jul-20 20:53 34.585412 -117.038229 47 31812ft 506kts
27-Jul-20 20:54 34.674231 -116.908846 47 34330ft 479kts
27-Jul-20 20:55 34.744087 -116.806871 48 34871ft 494kts
27-Jul-20 20:56 34.833641 -116.675669 48 34871ft 508kts
27-Jul-20 20:57 34.926810 -116.547189 44 34874ft 506kts
27-Jul-20 20:58 35.021933 -116.420441 45 34895ft 508kts
27-Jul-20 20:59 35.114984 -116.295751 45 34903ft 507kts
27-Jul-20 21:00 35.210008 -116.167905 45 34908ft 509kts
27-Jul-20 21:01 35.304880 -116.039705 45 34908ft 508kts
27-Jul-20 21:02 35.399866 -115.910862 45 34908ft 509kts
27-Jul-20 21:03 35.494268 -115.782312 45 34904ft 509kts
27-Jul-20 21:04 35.588720 -115.653206 45 34898ft 509kts
27-Jul-20 21:05 35.683141 -115.523652 45 34899ft 509kts
27-Jul-20 21:06 35.776502 -115.393407 46 34899ft 509kts
27-Jul-20 21:07 35.868814 -115.265069 46 34898ft 509kts
27-Jul-20 21:08 35.961375 -115.136447 46 34894ft 509kts
27-Jul-20 21:09 36.055132 -115.005770 46 34866ft 512kts
27-Jul-20 21:10 36.146931 -114.877459 45 34836ft 511kts
27-Jul-20 21:11 36.259255 -114.775701 25 34836ft 505kts
27-Jul-20 21:12 36.381891 -114.694191 24 34818ft 503kts
27-Jul-20 21:13 36.505354 -114.612124 24 34816ft 504kts
27-Jul-20 21:14 36.628576 -114.529942 24 34817ft 504kts
27-Jul-20 21:15 36.750261 -114.443825 28 34825ft 505kts
27-Jul-20 21:16 36.869179 -114.350538 29 34865ft 506kts
27-Jul-20 21:17 36.986527 -114.258358 29 34913ft 506kts
27-Jul-20 21:18 37.102750 -114.166720 30 34926ft 507kts
27-Jul-20 21:19 37.220638 -114.073413 30 34937ft 506kts
27-Jul-20 21:20 37.337146 -113.980859 30 35162ft 508kts
27-Jul-20 21:21 37.455993 -113.886070 30 35164ft 507kts
27-Jul-20 21:22 37.575018 -113.790778 30 35164ft 508kts
27-Jul-20 21:23 37.693613 -113.695479 30 35164ft 508kts
27-Jul-20 21:24 37.811972 -113.599995 30 35160ft 508kts
27-Jul-20 21:25 37.927750 -113.500649 38 35148ft 509kts
27-Jul-20 21:26 38.034022 -113.384699 40 35146ft 510kts
27-Jul-20 21:27 38.137186 -113.268624 42 35145ft 509kts
27-Jul-20 21:28 38.238318 -113.153691 42 35146ft 508kts
27-Jul-20 21:30 38.343761 -113.036144 35 35151ft 509kts
27-Jul-20 21:31 38.469592 -112.955312 21 35166ft 508kts
27-Jul-20 21:32 38.599820 -112.885742 21 35177ft 508kts
27-Jul-20 21:33 38.729716 -112.816182 22 35187ft 508kts
27-Jul-20 21:34 38.859943 -112.746168 22 35192ft 509kts
27-Jul-20 21:35 38.988608 -112.676398 22 35173ft 502kts
27-Jul-20 21:36 39.109115 -112.611030 22 35152ft 512kts
27-Jul-20 21:37 39.239191 -112.540278 23 33882ft 492kts
27-Jul-20 21:38 39.370038 -112.488655 13 30508ft 497kts
27-Jul-20 21:39 39.504731 -112.449408 14 27846ft 503kts
27-Jul-20 21:40 39.639716 -112.402429 16 25175ft 504kts
27-Jul-20 21:41 39.769488 -112.354248 14 22499ft 481kts
27-Jul-20 21:42 39.892436 -112.314637 14 19695ft 448kts
27-Jul-20 21:43 40.009681 -112.274066 15 17162ft 425kts
27-Jul-20 21:44 40.114515 -112.235809 15 17058ft 402kts
27-Jul-20 21:45 40.221595 -112.196794 15 16882ft 390kts
27-Jul-20 21:45 40.309032 -112.166320 14 14092ft 378kts
27-Jul-20 21:47 40.427145 -112.126850 14 14021ft 374kts
27-Jul-20 21:48 40.525294 -112.093808 14 12805ft 368kts
27-Jul-20 21:48 40.606985 -112.079618 2 11332ft 333kts
27-Jul-20 21:50 40.699222 -112.085754 355 11035ft 251kts
27-Jul-20 21:50 40.757493 -112.092607 355 11026ft 253kts
27-Jul-20 21:51 40.827784 -112.100952 355 11007ft 251kts
27-Jul-20 21:53 40.906002 -112.110239 355 10091ft 238kts
27-Jul-20 21:53 40.960780 -112.116756 356 8859ft 237kts
27-Jul-20 21:54 41.016361 -112.097118 81 8066ft 230kts
27-Jul-20 21:55 40.980339 -112.032531 141 7961ft 230kts
27-Jul-20 21:56 40.929849 -111.980310 156 6031ft 214kts
27-Jul-20 21:57 40.879387 -111.986533 168 5676ft 178kts
27-Jul-20 21:58 40.835387 -111.980176 170 4818ft 161kts
27-Jul-20 21:59 40.793562 -111.975234 174 4237ft 88kts
27-Jul-20 22:00 40.784813 -111.975576 211 4237ft 0kts
27-Jul-20 22:01 40.784647 -111.975929 260 4237ft 6kts
27-Jul-20 22:02 40.786782 -111.976716 354 4237ft 15kts
27-Jul-20 22:03 40.788849 -111.977973 252 4237ft 0kts

Navigation Log

Ident Type
Flight plan parsing failed, navigation log unavailable